Terminal Aerodrome Forecast
Issued by NWS

Home | Current Version | Previous Version | Text Only | Print | Product List | Glossary On
Versions: 1 2 3 4 5 6 7 8 9 10 11 12 13 14 15 16 17 18 19 20 21 22 23 24
423
FTUS46 KEKA 272339
TAFCEC
TAF
KCEC 272339Z 2800/2824 35006KT P6SM -SHRA SCT015 SCT030 BKN060
      TEMPO 2802/2806 5SM -SHRAGS BKN030 OVC050
     FM280600 18007KT P6SM -SHRA BKN025 OVC035
     FM281200 16005KT P6SM -SHRA SCT025 OVC040
     FM282100 26007KT P6SM SCT030 BKN050 OVC250=

USA.gov is the U.S. government's official web portal to all federal, state and local government web resources and services.